Time;durP1;ratioP1;P1;durP2;ratioP2;P2;SDS_P1;SDS_P2;PMS_P1;PMS_P2;Temp;Humidity;BMP_temperature;BMP_pressure;BME280_temperature;BME280_humidity;BME280_pressure;Samples;Min_cycle;Max_cycle;Signal;HPM_P1;HPM_P2
2022/02/14 00:04:41;;;;;;;10.65;4.47;;;;;;;7.90;51.64;99222.91;8415907;34;20247;-75
2022/02/14 00:09:46;;;;;;;11.07;4.53;;;;;;;7.71;51.93;99232.53;8415712;34;20152;-76
2022/02/14 00:14:51;;;;;;;8.45;4.25;;;;;;;7.76;51.90;99208.06;8416615;34;20148;-76
2022/02/14 00:19:54;;;;;;;7.57;4.18;;;;;;;7.59;52.46;99201.53;8416230;34;20255;-74
2022/02/14 00:24:58;;;;;;;7.30;4.60;;;;;;;7.49;52.93;99198.81;8388541;29;20673;-74
2022/02/14 00:30:03;;;;;;;7.38;4.38;;;;;;;7.44;52.94;99194.84;8372913;34;20157;-73
2022/02/14 00:35:06;;;;;;;7.40;4.13;;;;;;;7.53;53.08;99195.88;8343527;34;20165;-73
2022/02/14 00:40:11;;;;;;;10.40;5.13;;;;;;;7.44;53.34;99192.19;8362894;34;20325;-74
2022/02/14 00:45:16;;;;;;;7.82;4.70;;;;;;;7.44;53.34;99182.34;8380974;34;20624;-74
2022/02/14 00:50:19;;;;;;;7.43;4.78;;;;;;;7.26;53.56;99198.13;8386583;34;20833;-73
2022/02/14 00:55:22;;;;;;;10.50;4.75;;;;;;;7.39;53.69;99187.22;8361930;35;20236;-73
2022/02/14 01:00:27;;;;;;;7.13;4.35;;;;;;;7.35;53.62;99184.94;8389911;34;20192;-73
2022/02/14 01:05:30;;;;;;;7.82;4.40;;;;;;;7.39;53.53;99168.53;8415264;34;20220;-73
2022/02/14 01:10:34;;;;;;;5.90;4.00;;;;;;;7.40;53.88;99164.88;8415592;34;20216;-73
2022/02/14 01:15:38;;;;;;;5.95;4.10;;;;;;;7.14;54.52;99163.63;8415077;34;20312;-74
2022/02/14 01:20:42;;;;;;;9.70;4.90;;;;;;;7.22;54.47;99151.31;8414456;34;20454;-75
2022/02/14 01:25:45;;;;;;;8.68;4.88;;;;;;;7.32;54.34;99143.31;8333970;34;20247;-75
2022/02/14 01:30:49;;;;;;;9.10;4.78;;;;;;;7.24;54.69;99136.00;8414636;34;20677;-75
2022/02/14 01:35:52;;;;;;;8.65;4.60;;;;;;;7.15;54.79;99119.91;8415040;34;20208;-73
2022/02/14 01:40:55;;;;;;;9.55;5.53;;;;;;;7.01;55.10;99129.97;8414857;34;20680;-74
2022/02/14 01:46:00;;;;;;;6.60;4.65;;;;;;;7.02;55.12;99106.78;8415050;34;20141;-74
2022/02/14 01:51:04;;;;;;;8.73;3.95;;;;;;;6.95;55.37;99092.28;8414979;34;20638;-74
2022/02/14 01:56:07;;;;;;;8.52;4.80;;;;;;;7.10;55.25;99082.91;8413967;34;20149;-73
2022/02/14 02:01:11;;;;;;;5.88;3.63;;;;;;;7.15;55.29;99080.69;8413938;34;20156;-73
2022/02/14 02:06:14;;;;;;;6.82;4.72;;;;;;;6.99;55.50;99075.88;8414392;34;20153;-74
2022/02/14 02:16:39;;;;;;;7.70;4.10;;;;;;;7.20;55.45;99051.78;8414175;34;20213;-75
2022/02/14 02:21:45;;;;;;;5.47;3.60;;;;;;;7.28;55.40;99043.09;8413783;34;20145;-73
2022/02/14 02:26:58;;;;;;;6.25;4.30;;;;;;;7.26;55.57;99021.84;8413728;34;20151;-74
2022/02/14 02:32:02;;;;;;;6.43;4.80;;;;;;;7.30;55.53;99018.91;8413459;34;20164;-73
2022/02/14 02:37:06;;;;;;;7.45;4.93;;;;;;;7.24;55.78;99020.28;8414069;34;20152;-75
2022/02/14 02:42:14;;;;;;;6.03;3.88;;;;;;;7.16;55.96;99004.09;8413892;34;20145;-75
2022/02/14 02:47:21;;;;;;;7.68;4.10;;;;;;;7.20;55.92;99008.19;8414558;34;20463;-74
2022/02/14 02:52:24;;;;;;;7.82;4.55;;;;;;;7.17;56.05;99003.97;8414299;34;20244;-75
2022/02/14 02:57:30;;;;;;;5.97;3.70;;;;;;;7.17;56.17;98987.94;8413816;35;21063;-75
2022/02/14 03:02:33;;;;;;;4.25;3.63;;;;;;;7.34;55.61;98985.59;8413085;35;20152;-75
2022/02/14 03:07:36;;;;;;;7.10;4.00;;;;;;;7.28;56.05;98987.84;8413559;34;20243;-75
2022/02/14 03:12:41;;;;;;;6.82;3.15;;;;;;;7.18;56.03;98978.09;8395673;34;20203;-75
2022/02/14 03:17:44;;;;;;;9.35;5.18;;;;;;;7.25;56.05;98960.56;8418482;34;21018;-75
2022/02/14 03:22:47;;;;;;;11.38;4.45;;;;;;;7.14;56.46;98964.19;8418274;34;20503;-75
2022/02/14 03:27:52;;;;;;;7.10;4.28;;;;;;;7.28;56.14;98942.44;8418526;34;20249;-75
2022/02/14 03:32:55;;;;;;;7.40;4.32;;;;;;;7.36;56.06;98941.75;8416920;34;20173;-74
2022/02/14 03:37:59;;;;;;;7.30;4.00;;;;;;;7.46;56.02;98942.59;8417364;34;20208;-75
2022/02/14 03:43:06;;;;;;;7.85;4.38;;;;;;;7.47;56.05;98924.75;8417290;34;20129;-74
2022/02/14 03:48:10;;;;;;;8.20;4.38;;;;;;;7.43;56.05;98926.84;8394309;34;20144;-74
2022/02/14 03:53:13;;;;;;;9.13;3.65;;;;;;;7.30;56.44;98915.59;8416520;34;20462;-74
2022/02/14 03:58:18;;;;;;;8.32;4.32;;;;;;;7.36;56.45;98914.19;8416597;34;20587;-74
2022/02/14 04:03:21;;;;;;;7.95;3.90;;;;;;;7.22;56.91;98913.63;8416327;34;20303;-74
2022/02/14 04:08:24;;;;;;;6.00;3.53;;;;;;;7.12;57.23;98904.72;8416625;34;20277;-75
2022/02/14 04:13:28;;;;;;;6.35;4.15;;;;;;;7.16;56.91;98915.97;8393533;34;20201;-74
2022/02/14 04:18:31;;;;;;;7.63;3.97;;;;;;;7.15;57.36;98915.13;8416108;34;20634;-74
2022/02/14 04:23:34;;;;;;;9.15;5.53;;;;;;;7.25;56.88;98923.19;8415093;34;20613;-73
2022/02/14 04:28:39;;;;;;;6.30;4.20;;;;;;;7.02;57.22;98920.75;8415747;34;20259;-74
2022/02/14 04:33:42;;;;;;;8.30;4.25;;;;;;;7.14;57.01;98929.47;8416250;34;20204;-74
2022/02/14 04:38:45;;;;;;;6.53;4.43;;;;;;;7.00;57.43;98912.03;8415595;34;20620;-74
2022/02/14 04:43:51;;;;;;;5.78;4.15;;;;;;;7.00;57.52;98913.84;8415613;34;20161;-73
2022/02/14 04:48:54;;;;;;;11.50;4.20;;;;;;;7.06;57.17;98910.63;8415326;34;20169;-75
2022/02/14 04:53:58;;;;;;;6.00;4.30;;;;;;;7.01;56.99;98902.19;8415295;34;20244;-75
2022/02/14 04:59:02;;;;;;;6.28;4.00;;;;;;;7.11;56.76;98894.22;8413828;34;20653;-74
2022/02/14 05:04:05;;;;;;;9.68;4.20;;;;;;;6.87;57.19;98907.88;8392528;34;20612;-73
2022/02/14 05:09:08;;;;;;;5.93;3.83;;;;;;;6.93;56.90;98912.72;8414828;34;20251;-73
2022/02/14 05:14:13;;;;;;;6.50;3.97;;;;;;;6.72;57.41;98910.94;8414912;34;20160;-74
2022/02/14 05:19:16;;;;;;;9.23;4.93;;;;;;;6.68;57.44;98895.34;8414381;34;20145;-74
2022/02/14 05:24:19;;;;;;;6.53;3.85;;;;;;;6.78;57.39;98923.75;8414598;34;20168;-74
2022/02/14 05:29:23;;;;;;;4.93;3.80;;;;;;;6.81;57.31;98923.47;8414533;34;20291;-74
2022/02/14 05:34:26;;;;;;;7.28;4.10;;;;;;;6.56;57.82;98930.13;8415120;34;20284;-74
2022/02/14 05:39:29;;;;;;;5.72;3.95;;;;;;;6.63;57.65;98931.25;8414774;34;20236;-75
2022/02/14 05:44:33;;;;;;;5.80;4.38;;;;;;;6.66;57.27;98935.47;8415557;34;20231;-74
2022/02/14 05:49:37;;;;;;;8.48;5.03;;;;;;;6.62;57.49;98928.75;8413869;34;20255;-73
2022/02/14 05:54:40;;;;;;;6.70;3.67;;;;;;;6.54;57.98;98928.56;8414582;34;20181;-73
2022/02/14 05:59:44;;;;;;;5.20;3.35;;;;;;;6.55;57.89;98915.06;8414365;34;20262;-75
2022/02/14 06:04:47;;;;;;;7.28;4.20;;;;;;;6.37;58.41;98924.69;8392461;34;20144;-73
2022/02/14 06:09:50;;;;;;;8.15;4.00;;;;;;;6.50;58.18;98919.13;8414781;34;20276;-74
2022/02/14 06:14:55;;;;;;;5.80;4.15;;;;;;;6.55;58.30;98930.25;8414632;34;20545;-74
2022/02/14 06:19:58;;;;;;;4.03;3.28;;;;;;;6.36;58.74;98918.53;8414681;34;20149;-73
2022/02/14 06:25:01;;;;;;;6.65;4.55;;;;;;;6.27;59.08;98919.31;8393979;29;20185;-74
2022/02/14 06:30:09;;;;;;;6.90;3.30;;;;;;;6.29;59.12;98919.19;8412763;34;20190;-74
2022/02/14 06:35:12;;;;;;;6.70;3.95;;;;;;;6.48;58.58;98905.09;8413113;34;20621;-75
2022/02/14 06:40:15;;;;;;;5.40;4.72;;;;;;;6.47;59.29;98906.06;8414748;34;20148;-74
2022/02/14 06:45:20;;;;;;;10.55;4.78;;;;;;;6.55;59.15;98911.56;8412362;34;20145;-75
2022/02/14 06:50:28;;;;;;;5.43;3.50;;;;;;;6.56;59.15;98921.28;8412529;34;20144;-75
2022/02/14 06:55:31;;;;;;;4.75;3.78;;;;;;;6.68;58.60;98922.84;8411936;34;20255;-75
2022/02/14 07:00:35;;;;;;;6.35;3.55;;;;;;;6.70;58.89;98918.25;8412238;35;20155;-75
2022/02/14 07:05:40;;;;;;;6.53;3.95;;;;;;;6.73;59.00;98919.78;8379008;35;20361;-74
2022/02/14 07:10:43;;;;;;;6.38;3.97;;;;;;;6.95;58.85;98927.59;8389555;35;20571;-74
2022/02/14 07:15:48;;;;;;;10.18;3.95;;;;;;;7.01;58.39;98923.53;8411936;35;20223;-75
2022/02/14 07:20:51;;;;;;;8.40;4.28;;;;;;;6.98;58.61;98915.81;8412116;35;20716;-78
2022/02/14 07:25:54;;;;;;;7.68;3.72;;;;;;;7.16;58.41;98922.19;8411414;35;20650;-75
2022/02/14 07:30:58;;;;;;;6.28;3.97;;;;;;;7.06;58.59;98921.31;8411501;35;20176;-75
2022/02/14 07:36:03;;;;;;;7.90;4.45;;;;;;;7.27;58.44;98921.22;8394704;35;20287;-75
2022/02/14 07:41:06;;;;;;;5.75;3.80;;;;;;;7.43;58.35;98913.50;8384547;35;20248;-76
2022/02/14 07:46:10;;;;;;;5.70;3.50;;;;;;;7.40;58.37;98915.59;8392839;35;20585;-75
2022/02/14 07:51:14;;;;;;;3.65;2.83;;;;;;;7.40;58.90;98921.75;8411254;35;20259;-75
2022/02/14 07:56:22;;;;;;;5.55;3.78;;;;;;;7.52;58.77;98922.50;8414102;34;20563;-76
2022/02/14 08:01:26;;;;;;;4.55;3.90;;;;;;;7.52;59.32;98924.31;8416217;34;20971;-75
2022/02/14 08:06:29;;;;;;;8.57;3.80;;;;;;;7.70;59.18;98923.44;8416276;34;20196;-76
2022/02/14 08:11:33;;;;;;;5.32;3.40;;;;;;;8.49;57.73;98908.97;8415805;34;20583;-75
2022/02/14 08:16:38;;;;;;;5.80;3.60;;;;;;;9.24;55.23;98909.69;8415624;34;20232;-75
2022/02/14 08:21:41;;;;;;;4.43;3.05;;;;;;;8.69;57.16;98903.53;8392793;34;20236;-75
2022/02/14 08:26:44;;;;;;;4.13;2.78;;;;;;;8.59;57.53;98895.56;8415168;34;20278;-76
2022/02/14 08:31:48;;;;;;;5.20;3.20;;;;;;;8.25;58.74;98904.06;8393091;34;20447;-74
2022/02/14 08:36:52;;;;;;;4.63;3.00;;;;;;;8.80;58.32;98906.88;8415775;34;20655;-75
2022/02/14 08:41:54;;;;;;;4.38;3.15;;;;;;;10.03;55.01;98891.13;8415645;34;20223;-75
2022/02/14 08:46:59;;;;;;;3.15;2.85;;;;;;;10.01;54.90;98895.78;8423672;34;20148;-76
2022/02/14 08:52:02;;;;;;;3.97;2.83;;;;;;;9.70;55.76;98897.03;8415642;34;20208;-75
2022/02/14 08:57:06;;;;;;;4.63;3.53;;;;;;;9.72;56.24;98904.94;8415831;34;20188;-76
2022/02/14 09:02:14;;;;;;;4.55;2.72;;;;;;;9.76;56.12;98905.47;8414860;34;20141;-75
2022/02/14 09:07:17;;;;;;;4.70;3.05;;;;;;;9.52;56.89;98901.59;8392344;34;20204;-75
2022/02/14 09:12:22;;;;;;;2.92;2.63;;;;;;;9.34;58.13;98903.41;8414755;34;20204;-76
2022/02/14 09:17:27;;;;;;;7.22;3.05;;;;;;;9.41;58.23;98905.34;8415042;34;20145;-75
2022/02/14 09:22:30;;;;;;;3.22;2.22;;;;;;;9.26;58.78;98898.81;8414803;34;20490;-76
2022/02/14 09:27:33;;;;;;;3.70;2.72;;;;;;;9.42;59.16;98898.13;8415458;34;21078;-75
2022/02/14 09:32:37;;;;;;;4.05;2.55;;;;;;;9.42;59.38;98909.69;8415652;34;20507;-75
2022/02/14 09:37:40;;;;;;;4.07;2.00;;;;;;;9.43;59.85;98921.25;8415508;34;20677;-75
2022/02/14 09:42:43;;;;;;;3.05;2.42;;;;;;;9.66;59.25;98902.88;8415240;34;20247;-75
2022/02/14 09:47:48;;;;;;;3.67;2.08;;;;;;;9.40;60.21;98895.59;8415025;34;20615;-75
2022/02/14 09:52:53;;;;;;;3.17;2.20;;;;;;;9.80;59.65;98894.28;8414072;34;20157;-75
2022/02/14 09:57:56;;;;;;;4.80;1.90;;;;;;;9.63;60.20;98895.16;8410649;34;20240;-74
2022/02/14 10:03:13;;;;;;;2.85;2.65;;;;;;;9.79;59.93;98897.97;8388113;34;20205;-74
2022/02/14 10:08:21;;;;;;;2.83;2.53;;;;;;;10.00;59.73;98899.47;8386489;34;20172;-75
2022/02/14 10:13:32;;;;;;;3.20;2.42;;;;;;;10.00;59.64;98907.53;8381590;34;20627;-74
2022/02/14 10:18:39;;;;;;;2.10;1.85;;;;;;;9.94;59.92;98917.06;8359248;35;20150;-75
2022/02/14 10:24:07;;;;;;;2.50;2.30;;;;;;;10.09;59.62;98920.00;8360764;35;20264;-74
2022/02/14 10:29:17;;;;;;;7.00;2.35;;;;;;;9.87;59.96;98929.38;8360459;35;20205;-75
2022/02/14 10:34:32;;;;;;;7.20;2.40;;;;;;;10.25;59.37;98921.97;8359630;35;20252;-75
2022/02/14 10:39:36;;;;;;;3.53;1.90;;;;;;;10.48;58.61;98939.22;8378023;34;20148;-75
2022/02/14 10:50:09;;;;;;;2.38;2.10;;;;;;;10.68;58.61;98914.81;8387824;34;20224;-75
2022/02/14 10:55:16;;;;;;;2.90;1.95;;;;;;;10.73;58.26;98920.56;8382227;34;20538;-75
2022/02/14 11:00:21;;;;;;;3.08;2.33;;;;;;;10.83;58.56;98932.88;8359882;35;20332;-75
2022/02/14 11:05:29;;;;;;;2.25;2.00;;;;;;;10.29;59.77;98918.81;8359857;35;20153;-75
2022/02/14 11:10:33;;;;;;;3.80;2.17;;;;;;;10.66;58.88;98933.78;8359852;35;20154;-75
2022/02/14 11:15:36;;;;;;;3.03;1.60;;;;;;;10.26;59.87;98931.72;8358802;35;20228;-75
2022/02/14 11:20:42;;;;;;;4.22;2.17;;;;;;;10.63;59.11;98915.28;8373062;35;20211;-75
2022/02/14 11:25:52;;;;;;;2.33;1.95;;;;;;;10.39;59.49;98916.00;8386936;35;20237;-75
2022/02/14 11:31:09;;;;;;;3.47;2.35;;;;;;;10.85;58.66;98911.19;8384662;34;20153;-75
2022/02/14 11:36:14;;;;;;;3.53;2.10;;;;;;;10.76;59.00;98912.19;8383775;34;20212;-75
2022/02/14 11:41:30;;;;;;;5.22;2.40;;;;;;;10.91;58.63;98907.84;8406446;34;20177;-75
2022/02/14 11:46:40;;;;;;;2.25;2.05;;;;;;;10.80;59.15;98903.63;8420069;34;21043;-75
2022/02/14 11:51:49;;;;;;;2.05;1.73;;;;;;;10.58;59.30;98925.66;8417644;34;20452;-75
2022/02/14 11:56:53;;;;;;;4.40;2.70;;;;;;;10.26;61.59;98927.19;8419707;34;20137;-75
2022/02/14 12:02:06;;;;;;;3.33;2.40;;;;;;;10.77;59.80;98928.09;8417874;34;20244;-75
2022/02/14 12:07:36;;;;;;;5.18;2.33;;;;;;;10.71;59.95;98931.44;8395324;34;20207;-75
2022/02/14 12:13:19;;;;;;;4.38;2.30;;;;;;;10.68;59.77;98933.63;8416332;34;20272;-75
2022/02/14 12:23:51;;;;;;;3.97;2.38;;;;;;;10.14;63.81;98926.56;8420849;29;20184;-75
2022/02/14 12:34:25;;;;;;;4.15;2.47;;;;;;;10.29;62.38;98929.53;8438350;34;20152;-75
2022/02/14 12:39:33;;;;;;;2.90;2.00;;;;;;;10.35;62.01;98946.84;8472828;34;20156;-75
2022/02/14 12:44:36;;;;;;;3.50;1.52;;;;;;;10.50;61.37;98945.25;8472653;34;20152;-74
2022/02/14 12:49:42;;;;;;;2.10;1.65;;;;;;;10.66;61.01;98957.09;8449929;34;20187;-74
2022/02/14 12:54:55;;;;;;;1.85;1.30;;;;;;;10.50;61.47;98964.03;8472992;34;20567;-73
2022/02/14 12:59:58;;;;;;;2.95;2.35;;;;;;;11.30;60.33;98954.88;8473367;34;20483;-75
2022/02/14 13:05:09;;;;;;;3.17;2.03;;;;;;;11.73;59.28;98943.03;8473450;34;20322;-75
2022/02/14 13:10:14;;;;;;;2.13;1.92;;;;;;;12.83;55.64;98949.66;8476412;34;20155;-75
2022/02/14 13:15:27;;;;;;;2.65;1.90;;;;;;;12.75;55.94;98944.31;8473234;34;20148;-75
2022/02/14 13:20:30;;;;;;;3.35;2.10;;;;;;;12.02;57.80;98947.91;8472669;34;20200;-75
2022/02/14 13:25:49;;;;;;;2.55;2.35;;;;;;;11.62;58.72;98946.88;8473245;34;21030;-75
2022/02/14 13:30:54;;;;;;;2.40;1.90;;;;;;;11.34;59.10;98961.63;8472303;34;20175;-75
2022/02/14 13:36:01;;;;;;;3.42;2.55;;;;;;;10.82;56.96;98965.25;8472565;34;20155;-75
2022/02/14 13:41:07;;;;;;;2.30;2.10;;;;;;;10.49;56.69;98956.16;8471862;34;20303;-76
2022/02/14 13:46:12;;;;;;;2.40;2.20;;;;;;;10.80;56.31;98969.94;8472066;34;20223;-76
2022/02/14 13:51:22;;;;;;;3.13;2.10;;;;;;;11.72;51.63;98977.16;8450785;34;20255;-75
2022/02/14 13:56:28;;;;;;;2.70;2.50;;;;;;;10.99;51.67;98974.22;8416927;34;20227;-76
2022/02/14 14:01:34;;;;;;;3.13;2.92;;;;;;;11.15;51.10;98981.53;8420735;34;20235;-76
2022/02/14 14:06:38;;;;;;;2.40;2.20;;;;;;;10.23;54.23;98969.56;8437802;34;20153;-76
2022/02/14 14:11:43;;;;;;;2.65;2.42;;;;;;;10.42;54.11;98982.78;8394090;34;20487;-76
2022/02/14 14:16:46;;;;;;;1.92;1.83;;;;;;;10.03;54.66;98995.75;8393999;34;20165;-74
2022/02/14 14:21:51;;;;;;;2.80;2.00;;;;;;;10.83;52.80;98999.16;8417167;34;20728;-75
2022/02/14 14:26:55;;;;;;;2.03;1.83;;;;;;;10.93;53.29;99016.00;8441843;34;20254;-74
2022/02/14 14:31:59;;;;;;;1.77;1.33;;;;;;;10.60;52.84;99026.53;8471408;34;20188;-75
2022/02/14 14:37:02;;;;;;;1.67;1.58;;;;;;;12.03;50.34;99043.78;8471640;34;20151;-74
2022/02/14 14:42:08;;;;;;;2.88;1.67;;;;;;;11.45;51.40;99040.13;8457815;34;20191;-75
2022/02/14 14:47:11;;;;;;;3.40;1.70;;;;;;;11.41;50.92;99037.91;8442824;34;20215;-76
2022/02/14 14:52:15;;;;;;;2.05;1.42;;;;;;;12.09;49.97;99053.88;8440501;34;20152;-74
2022/02/14 14:57:24;;;;;;;1.65;1.30;;;;;;;10.95;53.25;99062.38;8441120;34;20155;-74
2022/02/14 15:02:27;;;;;;;1.88;1.33;;;;;;;11.59;51.77;99045.88;8439621;34;20256;-74
2022/02/14 15:07:31;;;;;;;2.05;1.52;;;;;;;11.58;51.75;99054.97;8444693;34;20201;-75
2022/02/14 15:12:37;;;;;;;2.35;1.38;;;;;;;11.34;52.14;99074.50;8445197;34;20243;-75
2022/02/14 15:17:40;;;;;;;1.73;1.60;;;;;;;10.78;53.33;99080.22;8404913;34;20611;-74
2022/02/14 15:22:43;;;;;;;3.45;1.55;;;;;;;10.60;53.88;99082.94;8419739;34;20240;-74
2022/02/14 15:27:47;;;;;;;1.60;1.50;;;;;;;10.21;54.81;99085.13;8419680;34;20424;-74
2022/02/14 15:32:51;;;;;;;7.38;1.50;;;;;;;9.88;54.95;99094.69;8418785;34;20296;-74
2022/02/14 15:37:54;;;;;;;2.53;1.17;;;;;;;9.08;55.74;99114.91;8417392;34;20594;-74
2022/02/14 15:42:59;;;;;;;2.08;1.50;;;;;;;9.18;55.70;99113.91;8417403;34;20151;-75
2022/02/14 15:48:02;;;;;;;1.95;1.40;;;;;;;9.72;55.03;99114.09;8417121;34;20285;-75
2022/02/14 15:53:05;;;;;;;1.70;1.10;;;;;;;9.56;54.94;99127.28;8393540;34;20240;-74
2022/02/14 15:58:09;;;;;;;2.00;1.70;;;;;;;9.33;54.51;99119.63;8431448;34;20744;-75
2022/02/14 16:03:12;;;;;;;3.50;1.60;;;;;;;9.66;53.19;99117.38;8446910;34;20623;-75
2022/02/14 16:08:15;;;;;;;1.80;1.70;;;;;;;9.57;52.22;99103.03;8457798;34;20159;-74
2022/02/14 16:13:20;;;;;;;3.15;1.60;;;;;;;9.47;53.06;99112.94;8471029;34;20275;-75
2022/02/14 16:18:23;;;;;;;1.67;1.58;;;;;;;9.29;53.71;99121.75;8471148;34;20215;-75
2022/02/14 16:23:26;;;;;;;2.90;1.63;;;;;;;9.50;53.04;99128.72;8470226;34;20239;-75
2022/02/14 16:28:31;;;;;;;2.95;1.50;;;;;;;9.39;52.91;99143.16;8470822;34;20226;-72
2022/02/14 16:33:34;;;;;;;1.50;1.40;;;;;;;9.28;53.41;99144.19;8471191;34;20263;-74
2022/02/14 16:38:39;;;;;;;2.13;1.75;;;;;;;9.35;53.39;99143.59;8470717;34;20191;-75
2022/02/14 16:43:44;;;;;;;3.22;2.20;;;;;;;9.56;52.91;99138.84;8448195;34;20164;-74
2022/02/14 16:48:47;;;;;;;2.03;1.80;;;;;;;9.63;53.08;99144.47;8471701;34;20548;-75
2022/02/14 16:53:50;;;;;;;3.20;2.03;;;;;;;9.53;53.27;99146.34;8470324;34;20156;-75
2022/02/14 16:58:57;;;;;;;2.17;2.00;;;;;;;9.46;53.69;99143.41;8446898;34;20452;-75
2022/02/14 17:03:59;;;;;;;3.63;2.00;;;;;;;9.34;54.04;99161.50;8470654;34;20553;-75
2022/02/14 17:09:03;;;;;;;5.38;2.85;;;;;;;9.43;54.22;99159.78;8470413;34;20151;-75
2022/02/14 17:14:09;;;;;;;3.05;2.65;;;;;;;9.17;54.85;99175.69;8470579;34;20140;-75
2022/02/14 17:19:12;;;;;;;2.63;2.17;;;;;;;9.11;55.22;99170.91;8470532;34;20192;-74
2022/02/14 17:24:16;;;;;;;4.72;2.70;;;;;;;9.00;55.24;99167.38;8470193;34;20243;-74
2022/02/14 17:29:20;;;;;;;3.22;2.17;;;;;;;8.82;54.88;99190.53;8470255;34;20226;-75
2022/02/14 17:34:23;;;;;;;2.83;1.92;;;;;;;8.77;54.73;99209.69;8471382;34;20187;-75
2022/02/14 17:39:26;;;;;;;5.32;2.88;;;;;;;8.80;54.47;99203.19;8461374;34;20236;-75
2022/02/14 17:44:31;;;;;;;4.47;2.70;;;;;;;8.80;54.40;99219.25;8436573;34;20153;-75
2022/02/14 17:49:36;;;;;;;5.65;2.83;;;;;;;8.68;53.99;99223.91;8418750;34;20760;-75
2022/02/14 17:54:42;;;;;;;4.47;2.28;;;;;;;8.88;53.75;99227.44;8417507;34;20683;-74
2022/02/14 17:59:49;;;;;;;5.07;3.15;;;;;;;8.84;53.55;99226.88;8413923;34;20155;-75
2022/02/14 18:04:52;;;;;;;5.50;3.78;;;;;;;8.80;53.50;99224.63;8415370;34;20241;-76
2022/02/14 18:09:55;;;;;;;4.85;3.13;;;;;;;8.71;53.82;99230.84;8414233;34;20748;-75
2022/02/14 18:14:59;;;;;;;5.28;2.40;;;;;;;8.63;54.07;99225.34;8414132;34;20550;-76
2022/02/14 18:20:30;;;;;;;4.18;2.50;;;;;;;8.54;54.36;99233.22;8412934;34;20315;-75
2022/02/14 18:25:33;;;;;;;3.80;2.22;;;;;;;8.32;54.99;99238.78;8433233;29;20480;-75
2022/02/14 18:30:38;;;;;;;2.53;2.33;;;;;;;7.95;56.03;99239.38;8468238;34;20473;-75
2022/02/14 18:35:41;;;;;;;6.70;2.58;;;;;;;8.26;55.36;99234.00;8469021;34;20785;-75
2022/02/14 18:40:44;;;;;;;2.67;2.20;;;;;;;8.23;55.45;99237.78;8468462;34;20479;-75
2022/02/14 18:46:11;;;;;;;11.55;2.00;;;;;;;8.05;55.95;99236.75;8448979;34;20187;-76
2022/02/14 18:51:14;;;;;;;1.85;1.73;;;;;;;7.82;56.83;99254.81;8450512;34;20162;-74
2022/02/14 18:56:17;;;;;;;4.07;2.40;;;;;;;7.62;57.58;99260.03;8470973;34;20584;-74
2022/02/14 19:01:22;;;;;;;3.70;1.90;;;;;;;7.94;57.03;99262.59;8466091;34;20129;-74
2022/02/14 19:06:45;;;;;;;5.20;2.00;;;;;;;8.04;56.78;99262.66;8487065;34;20162;-75
2022/02/14 19:11:48;;;;;;;2.45;1.80;;;;;;;8.23;56.54;99261.84;8468909;34;20317;-74
2022/02/14 19:17:12;;;;;;;3.35;1.73;;;;;;;8.22;56.46;99261.97;8468036;34;20154;-75
2022/02/14 19:22:15;;;;;;;2.83;2.42;;;;;;;8.16;56.38;99263.38;8445544;34;20160;-74
2022/02/14 19:27:18;;;;;;;6.43;2.33;;;;;;;8.11;56.57;99271.78;8468547;34;20154;-75
2022/02/14 19:32:22;;;;;;;3.35;2.10;;;;;;;7.89;57.27;99280.84;8467896;34;20166;-75
2022/02/14 19:37:25;;;;;;;2.83;2.25;;;;;;;7.72;57.92;99286.84;8468018;34;20194;-75
2022/02/14 19:42:28;;;;;;;2.35;2.08;;;;;;;7.81;57.54;99290.53;8467791;34;20144;-75
2022/02/14 19:47:33;;;;;;;4.45;2.70;;;;;;;7.82;57.81;99297.59;8467997;34;20158;-75
2022/02/14 19:52:36;;;;;;;4.32;2.25;;;;;;;7.68;58.42;99293.44;8447151;34;20687;-75
2022/02/14 19:57:48;;;;;;;5.13;2.33;;;;;;;7.71;58.52;99294.03;8449415;34;20458;-73
2022/02/14 20:02:52;;;;;;;5.93;2.38;;;;;;;7.57;59.01;99309.53;8453479;34;20306;-74
2022/02/14 20:07:55;;;;;;;3.70;2.30;;;;;;;7.44;58.47;99299.91;8441646;34;20470;-74
2022/02/14 20:12:58;;;;;;;2.53;2.17;;;;;;;7.83;57.39;99310.81;8421791;34;20443;-74
2022/02/14 20:18:03;;;;;;;4.03;2.25;;;;;;;7.55;57.89;99303.50;8444999;34;20300;-74
2022/02/14 20:23:07;;;;;;;7.60;2.50;;;;;;;7.26;58.66;99312.13;8460735;34;20223;-74
2022/02/14 20:28:10;;;;;;;3.78;2.38;;;;;;;7.38;58.35;99318.28;8470707;34;20632;-74
2022/02/14 20:33:14;;;;;;;6.75;2.78;;;;;;;7.34;58.59;99324.84;8471363;34;20243;-74
2022/02/14 20:38:18;;;;;;;3.95;2.42;;;;;;;7.16;58.97;99325.44;8472130;34;20506;-73
2022/02/14 20:43:21;;;;;;;6.15;2.95;;;;;;;6.88;59.88;99324.19;8471709;34;21170;-74
2022/02/14 20:48:25;;;;;;;5.32;2.78;;;;;;;6.88;60.50;99318.84;8471361;34;20540;-74
2022/02/14 20:53:28;;;;;;;9.80;3.40;;;;;;;6.98;60.15;99319.78;8471425;34;20724;-76
2022/02/14 20:58:31;;;;;;;3.72;2.72;;;;;;;6.80;60.93;99315.94;8471132;34;20144;-76
2022/02/14 21:03:36;;;;;;;5.80;2.67;;;;;;;7.01;60.62;99321.34;8470212;34;20870;-73
2022/02/14 21:08:39;;;;;;;2.42;1.90;;;;;;;6.81;61.15;99341.66;8470182;34;21002;-74
2022/02/14 21:13:42;;;;;;;5.95;2.90;;;;;;;7.11;60.40;99332.97;8458983;34;20227;-75
2022/02/14 21:18:48;;;;;;;8.02;3.83;;;;;;;6.93;61.17;99339.84;8441285;34;20453;-76
2022/02/14 21:23:51;;;;;;;6.53;3.00;;;;;;;6.59;62.45;99342.56;8443954;34;20168;-76
2022/02/14 21:29:14;;;;;;;5.18;3.30;;;;;;;6.49;62.93;99342.44;8423033;34;20163;-76
2022/02/14 21:34:19;;;;;;;4.18;2.80;;;;;;;6.69;62.34;99339.97;8434172;34;20279;-75
2022/02/14 21:39:22;;;;;;;5.85;2.38;;;;;;;6.55;62.64;99335.75;8414979;34;20243;-75
2022/02/14 21:44:25;;;;;;;4.70;3.20;;;;;;;6.27;63.83;99337.16;8392188;34;20479;-75
2022/02/14 21:49:30;;;;;;;6.50;3.13;;;;;;;6.49;63.40;99334.44;8414822;34;20748;-75
2022/02/14 21:54:36;;;;;;;4.43;3.03;;;;;;;6.42;63.34;99340.38;8415083;34;20251;-76
2022/02/14 21:59:40;;;;;;;5.68;2.90;;;;;;;6.08;64.51;99327.94;8414760;34;20157;-74
2022/02/14 22:10:10;;;;;;;5.82;3.35;;;;;;;6.34;63.92;99338.38;8415934;34;20159;-73
2022/02/14 22:15:13;;;;;;;4.25;3.10;;;;;;;6.26;64.15;99348.78;8414672;34;20232;-74
2022/02/14 22:20:18;;;;;;;12.32;4.40;;;;;;;6.28;64.06;99341.50;8414549;34;20236;-75
2022/02/14 22:25:22;;;;;;;5.97;3.08;;;;;;;6.14;64.85;99350.59;8415020;34;20288;-74
2022/02/14 22:30:25;;;;;;;8.93;3.75;;;;;;;6.25;64.36;99358.59;8390284;34;20485;-75
2022/02/14 22:35:30;;;;;;;4.78;2.80;;;;;;;6.08;64.96;99362.59;8414805;34;20191;-75
2022/02/14 22:40:33;;;;;;;4.68;2.75;;;;;;;6.16;64.76;99368.16;8414365;34;20192;-74
2022/02/14 22:45:37;;;;;;;8.77;4.38;;;;;;;6.56;63.79;99364.16;8391563;34;20319;-75
2022/02/14 22:50:41;;;;;;;8.73;3.75;;;;;;;6.29;64.83;99375.22;8413790;34;20263;-75
2022/02/14 22:55:44;;;;;;;7.25;3.58;;;;;;;6.21;64.74;99369.63;8414241;34;20169;-75
2022/02/14 23:00:56;;;;;;;5.88;2.55;;;;;;;6.11;65.03;99373.00;8413301;34;20239;-76
2022/02/14 23:06:00;;;;;;;5.05;2.92;;;;;;;6.10;65.04;99373.16;8409323;35;20653;-76
2022/02/14 23:16:25;;;;;;;6.25;3.50;;;;;;;6.19;65.12;99361.75;8412294;35;20712;-75
2022/02/14 23:21:31;;;;;;;9.57;2.85;;;;;;;6.17;65.20;99369.00;8390518;35;20181;-76
2022/02/14 23:26:35;;;;;;;5.47;3.40;;;;;;;6.17;65.66;99375.22;8414935;34;20145;-75
2022/02/14 23:31:39;;;;;;;5.25;3.53;;;;;;;6.13;65.69;99381.75;8395037;34;20159;-75
2022/02/14 23:36:43;;;;;;;7.50;3.15;;;;;;;6.23;65.39;99391.72;8417608;34;20263;-75
2022/02/14 23:41:46;;;;;;;4.60;2.88;;;;;;;5.81;66.89;99394.91;8417826;34;20567;-75
2022/02/14 23:46:49;;;;;;;6.55;3.13;;;;;;;6.16;65.81;99399.31;8394880;34;20779;-75
2022/02/14 23:51:54;;;;;;;6.63;3.20;;;;;;;6.21;65.48;99389.16;8417465;34;20767;-75
2022/02/14 23:56:57;;;;;;;6.28;3.10;;;;;;;6.26;65.11;99400.31;8394359;34;20224;-75
